sensor_id;sensor_type;location;lat;lon;timestamp;pressure;altitude;pressure_sealevel;temperature;humidity
61961;BME280;47923;42.506;24.192;2023-05-08T00:02:31;95797.78;;;8.87;84.83
61961;BME280;47923;42.506;24.192;2023-05-08T00:04:57;95794.88;;;8.80;85.07
61961;BME280;47923;42.506;24.192;2023-05-08T00:07:22;95791.84;;;8.69;84.91
61961;BME280;47923;42.506;24.192;2023-05-08T00:09:48;95796.13;;;8.58;85.06
61961;BME280;47923;42.506;24.192;2023-05-08T00:12:13;95765.56;;;8.29;85.15
61961;BME280;47923;42.506;24.192;2023-05-08T00:14:41;95792.16;;;8.31;85.73
61961;BME280;47923;42.506;24.192;2023-05-08T00:17:06;95537.22;;;6.52;86.09
61961;BME280;47923;42.506;24.192;2023-05-08T00:19:32;95746.44;;;7.86;86.55
61961;BME280;47923;42.506;24.192;2023-05-08T00:21:57;95174.19;;;4.07;86.49
61961;BME280;47923;42.506;24.192;2023-05-08T00:24:23;95791.44;;;8.10;86.84
61961;BME280;47923;42.506;24.192;2023-05-08T00:26:48;95772.78;;;7.92;86.65
61961;BME280;47923;42.506;24.192;2023-05-08T00:29:15;95666.31;;;7.34;86.04
61961;BME280;47923;42.506;24.192;2023-05-08T00:31:40;95619.72;;;6.97;85.25
61961;BME280;47923;42.506;24.192;2023-05-08T00:34:07;95709.41;;;7.70;85.34
61961;BME280;47923;42.506;24.192;2023-05-08T00:36:33;95772.50;;;8.18;85.72
61961;BME280;47923;42.506;24.192;2023-05-08T00:38:58;95796.16;;;8.13;85.52
61961;BME280;47923;42.506;24.192;2023-05-08T00:41:24;95781.03;;;8.08;83.58
61961;BME280;47923;42.506;24.192;2023-05-08T00:43:49;95378.94;;;5.44;83.60
61961;BME280;47923;42.506;24.192;2023-05-08T00:46:15;95672.69;;;7.29;83.57
61961;BME280;47923;42.506;24.192;2023-05-08T00:48:41;95791.22;;;8.02;84.36
61961;BME280;47923;42.506;24.192;2023-05-08T00:51:08;95566.56;;;6.57;84.66
61961;BME280;47923;42.506;24.192;2023-05-08T00:53:38;95733.50;;;7.67;84.67
61961;BME280;47923;42.506;24.192;2023-05-08T00:56:10;95791.22;;;8.02;84.48
61961;BME280;47923;42.506;24.192;2023-05-08T00:58:37;95732.47;;;7.59;84.46
61961;BME280;47923;42.506;24.192;2023-05-08T01:01:02;95786.72;;;7.94;85.32
61961;BME280;47923;42.506;24.192;2023-05-08T01:03:29;95650.31;;;7.04;85.56
61961;BME280;47923;42.506;24.192;2023-05-08T01:05:56;95694.41;;;7.24;85.36
61961;BME280;47923;42.506;24.192;2023-05-08T01:08:22;95593.13;;;6.50;85.42
61961;BME280;47923;42.506;24.192;2023-05-08T01:11:04;95788.19;;;7.71;85.93
61961;BME280;47923;42.506;24.192;2023-05-08T01:21:55;95801.81;;;7.54;86.86
61961;BME280;47923;42.506;24.192;2023-05-08T01:33:23;95731.84;;;6.87;88.41
61961;BME280;47923;42.506;24.192;2023-05-08T01:38:58;95801.94;;;7.15;88.80
61961;BME280;47923;42.506;24.192;2023-05-08T01:41:26;95797.25;;;7.12;87.45
61961;BME280;47923;42.506;24.192;2023-05-08T01:44:12;95788.19;;;7.17;88.08
61961;BME280;47923;42.506;24.192;2023-05-08T01:46:39;95736.75;;;6.85;88.93
61961;BME280;47923;42.506;24.192;2023-05-08T01:49:22;95585.66;;;5.93;88.36
61961;BME280;47923;42.506;24.192;2023-05-08T01:51:56;95654.41;;;6.27;88.54
61961;BME280;47923;42.506;24.192;2023-05-08T01:54:26;95782.28;;;7.03;89.54
61961;BME280;47923;42.506;24.192;2023-05-08T01:56:54;95736.91;;;6.59;89.96
61961;BME280;47923;42.506;24.192;2023-05-08T01:59:22;95601.38;;;5.65;90.22
61961;BME280;47923;42.506;24.192;2023-05-08T02:01:51;95768.75;;;6.70;90.82
61961;BME280;47923;42.506;24.192;2023-05-08T02:04:18;95798.84;;;6.84;90.31
61961;BME280;47923;42.506;24.192;2023-05-08T02:06:45;95788.63;;;6.77;90.06
61961;BME280;47923;42.506;24.192;2023-05-08T02:09:11;95587.31;;;5.38;90.29
61961;BME280;47923;42.506;24.192;2023-05-08T02:11:39;95586.53;;;5.38;91.20
61961;BME280;47923;42.506;24.192;2023-05-08T02:14:07;95776.28;;;6.55;91.16
61961;BME280;47923;42.506;24.192;2023-05-08T02:16:34;95556.97;;;5.17;90.92
61961;BME280;47923;42.506;24.192;2023-05-08T02:19:02;95678.72;;;5.83;91.56
61961;BME280;47923;42.506;24.192;2023-05-08T02:21:29;95783.84;;;6.53;91.58
61961;BME280;47923;42.506;24.192;2023-05-08T02:23:56;95731.59;;;6.21;91.20
61961;BME280;47923;42.506;24.192;2023-05-08T02:26:24;95764.50;;;6.39;90.50
61961;BME280;47923;42.506;24.192;2023-05-08T02:28:52;95796.47;;;6.53;89.90
61961;BME280;47923;42.506;24.192;2023-05-08T02:31:20;95780.97;;;6.29;90.62
61961;BME280;47923;42.506;24.192;2023-05-08T02:33:47;95648.00;;;5.34;90.89
61961;BME280;47923;42.506;24.192;2023-05-08T02:36:15;95799.06;;;6.41;90.40
61961;BME280;47923;42.506;24.192;2023-05-08T02:38:43;95625.31;;;5.32;90.28
61961;BME280;47923;42.506;24.192;2023-05-08T02:41:11;95818.94;;;6.48;90.55
61961;BME280;47923;42.506;24.192;2023-05-08T02:43:39;95646.56;;;5.45;90.84
61961;BME280;47923;42.506;24.192;2023-05-08T02:46:45;95800.47;;;6.47;90.73
61961;BME280;47923;42.506;24.192;2023-05-08T02:49:30;95807.72;;;6.46;89.86
61961;BME280;47923;42.506;24.192;2023-05-08T02:55:21;95805.72;;;6.34;89.31
61961;BME280;47923;42.506;24.192;2023-05-08T02:58:04;95810.63;;;6.32;88.63
61961;BME280;47923;42.506;24.192;2023-05-08T03:00:44;95806.84;;;6.33;88.46
61961;BME280;47923;42.506;24.192;2023-05-08T03:03:37;95781.00;;;6.20;88.96
61961;BME280;47923;42.506;24.192;2023-05-08T03:06:07;95798.00;;;6.33;89.10
61961;BME280;47923;42.506;24.192;2023-05-08T03:08:34;95757.56;;;6.00;89.14
61961;BME280;47923;42.506;24.192;2023-05-08T03:11:06;95638.25;;;5.21;89.44
61961;BME280;47923;42.506;24.192;2023-05-08T03:13:34;95720.22;;;5.77;89.42
61961;BME280;47923;42.506;24.192;2023-05-08T03:16:03;95807.16;;;6.32;89.59
61961;BME280;47923;42.506;24.192;2023-05-08T03:18:53;95659.38;;;5.22;89.68
61961;BME280;47923;42.506;24.192;2023-05-08T03:21:20;95810.94;;;6.31;89.77
61961;BME280;47923;42.506;24.192;2023-05-08T03:23:48;95809.69;;;6.28;90.20
61961;BME280;47923;42.506;24.192;2023-05-08T03:26:18;95687.03;;;5.52;90.41
61961;BME280;47923;42.506;24.192;2023-05-08T03:28:47;95766.69;;;6.07;89.95
61961;BME280;47923;42.506;24.192;2023-05-08T03:31:19;95724.13;;;5.97;89.71
61961;BME280;47923;42.506;24.192;2023-05-08T03:33:50;95815.88;;;6.58;89.01
61961;BME280;47923;42.506;24.192;2023-05-08T03:36:19;95660.50;;;5.68;87.63
61961;BME280;47923;42.506;24.192;2023-05-08T03:38:45;95812.19;;;6.72;87.31
61961;BME280;47923;42.506;24.192;2023-05-08T03:41:11;95817.94;;;6.82;87.27
61961;BME280;47923;42.506;24.192;2023-05-08T03:43:38;95805.97;;;6.80;87.08
61961;BME280;47923;42.506;24.192;2023-05-08T03:46:04;95820.16;;;7.10;86.37
61961;BME280;47923;42.506;24.192;2023-05-08T03:48:34;95815.78;;;7.26;86.25
61961;BME280;47923;42.506;24.192;2023-05-08T03:51:03;95713.94;;;6.71;85.81
61961;BME280;47923;42.506;24.192;2023-05-08T03:53:30;95775.97;;;7.40;85.77
61961;BME280;47923;42.506;24.192;2023-05-08T03:55:57;95625.34;;;7.49;83.91
61961;BME280;47923;42.506;24.192;2023-05-08T03:58:37;95830.91;;;11.34;72.20
61961;BME280;47923;42.506;24.192;2023-05-08T04:01:30;95829.25;;;13.75;60.38
61961;BME280;47923;42.506;24.192;2023-05-08T04:04:21;95761.41;;;15.11;54.22
61961;BME280;47923;42.506;24.192;2023-05-08T04:07:03;95822.75;;;16.79;48.06
61961;BME280;47923;42.506;24.192;2023-05-08T04:09:38;95825.78;;;17.78;44.50
61961;BME280;47923;42.506;24.192;2023-05-08T04:12:20;95825.88;;;18.99;41.42
61961;BME280;47923;42.506;24.192;2023-05-08T04:14:55;95635.47;;;18.54;39.37
61961;BME280;47923;42.506;24.192;2023-05-08T04:17:35;95820.47;;;19.75;39.19
61961;BME280;47923;42.506;24.192;2023-05-08T04:20:06;95813.69;;;20.21;38.46
61961;BME280;47923;42.506;24.192;2023-05-08T04:22:33;95813.47;;;21.16;36.79
61961;BME280;47923;42.506;24.192;2023-05-08T04:25:02;95817.28;;;20.45;37.26
61961;BME280;47923;42.506;24.192;2023-05-08T04:27:30;95775.84;;;21.96;34.23
61961;BME280;47923;42.506;24.192;2023-05-08T04:29:56;95734.84;;;21.22;35.12
61961;BME280;47923;42.506;24.192;2023-05-08T04:32:22;95797.72;;;21.63;34.32
61961;BME280;47923;42.506;24.192;2023-05-08T04:34:48;95801.19;;;19.48;38.26
61961;BME280;47923;42.506;24.192;2023-05-08T04:37:23;95822.06;;;18.86;39.60
61961;BME280;47923;42.506;24.192;2023-05-08T04:39:50;95819.41;;;18.02;42.27
61961;BME280;47923;42.506;24.192;2023-05-08T04:42:15;95794.69;;;19.31;39.79
61961;BME280;47923;42.506;24.192;2023-05-08T04:44:41;95815.56;;;20.27;38.10
61961;BME280;47923;42.506;24.192;2023-05-08T04:47:06;95640.44;;;20.22;36.12
61961;BME280;47923;42.506;24.192;2023-05-08T04:49:32;95815.16;;;22.16;34.79
61961;BME280;47923;42.506;24.192;2023-05-08T04:51:57;95811.00;;;22.28;33.95
61961;BME280;47923;42.506;24.192;2023-05-08T04:54:23;95745.06;;;21.85;33.89
61961;BME280;47923;42.506;24.192;2023-05-08T04:56:48;95717.53;;;23.06;32.10
61961;BME280;47923;42.506;24.192;2023-05-08T04:59:13;95754.09;;;23.68;31.33
61961;BME280;47923;42.506;24.192;2023-05-08T05:01:39;95803.06;;;23.93;30.69
61961;BME280;47923;42.506;24.192;2023-05-08T05:04:05;95776.69;;;22.85;32.19
61961;BME280;47923;42.506;24.192;2023-05-08T05:06:30;95720.53;;;22.46;32.23
61961;BME280;47923;42.506;24.192;2023-05-08T05:09:00;95793.72;;;23.29;32.24
61961;BME280;47923;42.506;24.192;2023-05-08T05:11:25;95801.22;;;22.43;32.82
61961;BME280;47923;42.506;24.192;2023-05-08T05:13:51;95714.25;;;21.73;34.15
61961;BME280;47923;42.506;24.192;2023-05-08T05:16:16;95685.78;;;21.64;33.87
61961;BME280;47923;42.506;24.192;2023-05-08T05:18:42;95644.44;;;22.56;32.89
61961;BME280;47923;42.506;24.192;2023-05-08T05:21:07;95787.13;;;25.62;29.37
61961;BME280;47923;42.506;24.192;2023-05-08T05:23:33;95626.22;;;26.66;26.98
61961;BME280;47923;42.506;24.192;2023-05-08T05:25:58;95730.00;;;28.40;24.94
61961;BME280;47923;42.506;24.192;2023-05-08T05:28:24;95696.06;;;29.79;23.05
61961;BME280;47923;42.506;24.192;2023-05-08T05:30:50;95645.84;;;29.20;22.82
61961;BME280;47923;42.506;24.192;2023-05-08T05:33:16;95774.69;;;30.72;22.05
61961;BME280;47923;42.506;24.192;2023-05-08T05:35:41;95513.94;;;28.34;22.89
61961;BME280;47923;42.506;24.192;2023-05-08T05:38:07;95721.63;;;29.78;22.69
61961;BME280;47923;42.506;24.192;2023-05-08T05:40:32;95704.63;;;29.90;22.32
61961;BME280;47923;42.506;24.192;2023-05-08T05:42:57;95714.25;;;30.84;21.65
61961;BME280;47923;42.506;24.192;2023-05-08T05:45:23;95769.44;;;31.50;20.69
61961;BME280;47923;42.506;24.192;2023-05-08T05:47:49;95715.72;;;31.34;20.12
61961;BME280;47923;42.506;24.192;2023-05-08T05:50:17;95654.31;;;30.94;20.18
61961;BME280;47923;42.506;24.192;2023-05-08T05:52:43;95763.72;;;30.09;21.02
61961;BME280;47923;42.506;24.192;2023-05-08T05:55:09;95668.81;;;30.63;19.74
61961;BME280;47923;42.506;24.192;2023-05-08T05:57:34;95439.31;;;27.79;21.10
61961;BME280;47923;42.506;24.192;2023-05-08T05:59:59;95753.41;;;32.69;18.44
61961;BME280;47923;42.506;24.192;2023-05-08T06:02:25;95749.25;;;32.90;18.70
61961;BME280;47923;42.506;24.192;2023-05-08T06:04:51;95750.03;;;34.04;17.40
61961;BME280;47923;42.506;24.192;2023-05-08T06:07:16;95737.84;;;34.19;16.99
61961;BME280;47923;42.506;24.192;2023-05-08T06:09:42;95626.94;;;32.48;17.72
61961;BME280;47923;42.506;24.192;2023-05-08T06:12:07;95583.38;;;31.73;18.24
61961;BME280;47923;42.506;24.192;2023-05-08T06:14:33;95742.66;;;34.29;16.55
61961;BME280;47923;42.506;24.192;2023-05-08T06:16:58;95663.66;;;34.14;16.36
61961;BME280;47923;42.506;24.192;2023-05-08T06:19:24;95536.03;;;33.91;16.06
61961;BME280;47923;42.506;24.192;2023-05-08T06:21:50;95691.38;;;35.13;15.98
61961;BME280;47923;42.506;24.192;2023-05-08T06:24:16;95407.75;;;34.42;14.92
61961;BME280;47923;42.506;24.192;2023-05-08T06:26:41;95666.47;;;35.51;15.61
61961;BME280;47923;42.506;24.192;2023-05-08T06:29:07;95712.28;;;35.81;15.01
61961;BME280;47923;42.506;24.192;2023-05-08T06:31:32;95605.81;;;34.05;16.07
61961;BME280;47923;42.506;24.192;2023-05-08T06:33:58;95622.38;;;34.43;16.22
61961;BME280;47923;42.506;24.192;2023-05-08T06:36:23;95717.19;;;35.69;15.98
61961;BME280;47923;42.506;24.192;2023-05-08T06:38:49;95708.63;;;36.39;15.18
61961;BME280;47923;42.506;24.192;2023-05-08T06:41:14;95613.38;;;37.78;13.93
61961;BME280;47923;42.506;24.192;2023-05-08T06:43:40;95664.81;;;37.84;13.32
61961;BME280;47923;42.506;24.192;2023-05-08T06:46:05;95698.72;;;37.11;14.42
61961;BME280;47923;42.506;24.192;2023-05-08T06:48:31;95687.94;;;38.79;13.34
61961;BME280;47923;42.506;24.192;2023-05-08T06:50:57;95704.53;;;38.96;13.29
61961;BME280;47923;42.506;24.192;2023-05-08T06:53:22;95705.50;;;35.54;15.25
61961;BME280;47923;42.506;24.192;2023-05-08T06:55:48;95626.28;;;36.63;14.92
61961;BME280;47923;42.506;24.192;2023-05-08T06:58:14;95631.63;;;38.68;13.76
61961;BME280;47923;42.506;24.192;2023-05-08T07:00:40;95710.19;;;38.00;14.28
61961;BME280;47923;42.506;24.192;2023-05-08T07:03:06;95604.50;;;36.44;14.82
61961;BME280;47923;42.506;24.192;2023-05-08T07:05:31;95574.63;;;37.47;14.17
61961;BME280;47923;42.506;24.192;2023-05-08T07:07:57;95693.78;;;36.03;15.92
61961;BME280;47923;42.506;24.192;2023-05-08T07:10:22;95631.66;;;35.65;15.88
61961;BME280;47923;42.506;24.192;2023-05-08T07:12:48;95673.59;;;34.77;16.78
61961;BME280;47923;42.506;24.192;2023-05-08T07:15:14;95715.78;;;33.61;17.77
61961;BME280;47923;42.506;24.192;2023-05-08T07:17:39;95697.19;;;32.67;19.02
61961;BME280;47923;42.506;24.192;2023-05-08T07:20:07;95695.72;;;33.14;18.94
61961;BME280;47923;42.506;24.192;2023-05-08T07:22:33;95507.88;;;30.84;19.51
61961;BME280;47923;42.506;24.192;2023-05-08T07:24:58;95529.75;;;31.11;19.72
61961;BME280;47923;42.506;24.192;2023-05-08T07:27:24;95704.00;;;32.29;19.67
61961;BME280;47923;42.506;24.192;2023-05-08T07:29:50;95425.41;;;30.31;20.22
61961;BME280;47923;42.506;24.192;2023-05-08T07:32:15;95485.34;;;26.92;23.91
61961;BME280;47923;42.506;24.192;2023-05-08T07:34:41;95709.00;;;29.05;23.17
61961;BME280;47923;42.506;24.192;2023-05-08T07:37:06;95634.03;;;29.10;22.43
61961;BME280;47923;42.506;24.192;2023-05-08T07:39:33;95701.63;;;31.44;20.62
61961;BME280;47923;42.506;24.192;2023-05-08T07:41:58;95690.00;;;33.46;18.63
61961;BME280;47923;42.506;24.192;2023-05-08T07:44:24;95624.72;;;31.95;18.90
61961;BME280;47923;42.506;24.192;2023-05-08T07:46:51;95673.34;;;34.07;17.84
61961;BME280;47923;42.506;24.192;2023-05-08T07:49:17;95674.25;;;31.48;19.49
61961;BME280;47923;42.506;24.192;2023-05-08T07:51:42;95611.97;;;30.75;20.45
61961;BME280;47923;42.506;24.192;2023-05-08T07:54:08;95607.41;;;29.33;22.10
61961;BME280;47923;42.506;24.192;2023-05-08T07:56:33;95553.06;;;31.08;19.18
61961;BME280;47923;42.506;24.192;2023-05-08T07:58:59;95650.84;;;29.84;21.38
61961;BME280;47923;42.506;24.192;2023-05-08T08:01:24;95603.06;;;31.84;18.93
61961;BME280;47923;42.506;24.192;2023-05-08T08:03:50;95673.63;;;32.79;18.64
61961;BME280;47923;42.506;24.192;2023-05-08T08:06:15;95569.00;;;32.54;18.71
61961;BME280;47923;42.506;24.192;2023-05-08T08:08:42;95518.84;;;30.46;19.74
61961;BME280;47923;42.506;24.192;2023-05-08T08:11:08;95460.03;;;30.65;19.46
61961;BME280;47923;42.506;24.192;2023-05-08T08:13:34;95700.16;;;31.07;19.82
61961;BME280;47923;42.506;24.192;2023-05-08T08:15:59;95602.13;;;31.67;19.20
61961;BME280;47923;42.506;24.192;2023-05-08T08:18:25;95395.50;;;30.72;18.68
61961;BME280;47923;42.506;24.192;2023-05-08T08:20:51;95677.44;;;34.12;17.23
61961;BME280;47923;42.506;24.192;2023-05-08T08:23:17;95574.56;;;33.03;17.69
61961;BME280;47923;42.506;24.192;2023-05-08T08:25:42;95603.41;;;30.99;20.03
61961;BME280;47923;42.506;24.192;2023-05-08T08:28:08;95512.81;;;32.47;17.95
61961;BME280;47923;42.506;24.192;2023-05-08T08:31:12;95620.56;;;33.67;18.52
61961;BME280;47923;42.506;24.192;2023-05-08T08:34:03;95664.03;;;32.86;19.08
61961;BME280;47923;42.506;24.192;2023-05-08T08:36:28;95662.00;;;30.64;21.28
61961;BME280;47923;42.506;24.192;2023-05-08T08:38:54;95607.06;;;30.49;21.23
61961;BME280;47923;42.506;24.192;2023-05-08T08:41:19;95604.31;;;30.70;20.60
61961;BME280;47923;42.506;24.192;2023-05-08T08:43:45;95600.75;;;29.01;22.96
61961;BME280;47923;42.506;24.192;2023-05-08T08:46:12;95658.72;;;30.00;22.54
61961;BME280;47923;42.506;24.192;2023-05-08T08:48:43;95499.66;;;30.95;20.34
61961;BME280;47923;42.506;24.192;2023-05-08T08:51:41;95654.88;;;30.63;21.34
61961;BME280;47923;42.506;24.192;2023-05-08T08:54:12;95639.97;;;34.10;17.82
61961;BME280;47923;42.506;24.192;2023-05-08T08:56:40;95656.06;;;36.22;15.86
61961;BME280;47923;42.506;24.192;2023-05-08T08:59:10;95638.16;;;35.43;16.74
61961;BME280;47923;42.506;24.192;2023-05-08T09:01:38;95642.75;;;34.15;18.69
61961;BME280;47923;42.506;24.192;2023-05-08T09:04:05;95637.06;;;32.45;19.40
61961;BME280;47923;42.506;24.192;2023-05-08T09:06:34;95569.50;;;31.52;20.37
61961;BME280;47923;42.506;24.192;2023-05-08T09:09:00;95628.84;;;31.73;20.26
61961;BME280;47923;42.506;24.192;2023-05-08T09:11:26;95450.56;;;31.34;19.39
61961;BME280;47923;42.506;24.192;2023-05-08T09:13:55;95580.59;;;32.36;19.47
61961;BME280;47923;42.506;24.192;2023-05-08T09:16:21;95430.53;;;30.78;19.58
61961;BME280;47923;42.506;24.192;2023-05-08T09:18:47;95527.38;;;31.24;20.01
61961;BME280;47923;42.506;24.192;2023-05-08T09:21:13;95621.28;;;31.79;20.44
61961;BME280;47923;42.506;24.192;2023-05-08T09:23:55;95610.88;;;32.86;19.56
61961;BME280;47923;42.506;24.192;2023-05-08T09:26:35;95627.25;;;31.67;21.47
61961;BME280;47923;42.506;24.192;2023-05-08T09:31:39;95558.31;;;32.15;21.25
61961;BME280;47923;42.506;24.192;2023-05-08T09:34:09;95588.28;;;33.94;19.28
61961;BME280;47923;42.506;24.192;2023-05-08T09:36:35;95416.59;;;33.09;19.09
61961;BME280;47923;42.506;24.192;2023-05-08T09:39:02;95568.63;;;34.11;18.86
61961;BME280;47923;42.506;24.192;2023-05-08T09:41:28;95492.47;;;33.56;19.49
61961;BME280;47923;42.506;24.192;2023-05-08T09:44:05;95565.50;;;36.30;18.03
61961;BME280;47923;42.506;24.192;2023-05-08T09:46:32;95348.75;;;36.03;16.63
61961;BME280;47923;42.506;24.192;2023-05-08T09:49:00;95571.72;;;35.92;17.25
61961;BME280;47923;42.506;24.192;2023-05-08T09:51:28;95558.94;;;36.46;16.90
61961;BME280;47923;42.506;24.192;2023-05-08T09:53:55;95181.16;;;34.95;16.69
61961;BME280;47923;42.506;24.192;2023-05-08T09:56:31;95552.72;;;38.04;16.38
61961;BME280;47923;42.506;24.192;2023-05-08T09:58:57;95452.66;;;36.58;17.26
61961;BME280;47923;42.506;24.192;2023-05-08T10:01:30;95455.81;;;36.92;16.51
61961;BME280;47923;42.506;24.192;2023-05-08T10:03:56;95552.69;;;37.21;16.60
61961;BME280;47923;42.506;24.192;2023-05-08T10:06:22;95526.00;;;36.41;17.61
61961;BME280;47923;42.506;24.192;2023-05-08T10:08:47;95555.09;;;34.43;18.88
61961;BME280;47923;42.506;24.192;2023-05-08T10:13:43;95540.66;;;35.74;18.18
61961;BME280;47923;42.506;24.192;2023-05-08T10:16:14;95520.00;;;34.83;18.66
61961;BME280;47923;42.506;24.192;2023-05-08T10:18:47;95531.34;;;35.54;18.25
61961;BME280;47923;42.506;24.192;2023-05-08T10:21:14;95537.16;;;34.68;18.67
61961;BME280;47923;42.506;24.192;2023-05-08T10:23:41;95546.53;;;32.86;20.38
61961;BME280;47923;42.506;24.192;2023-05-08T10:26:12;95558.97;;;31.42;21.70
61961;BME280;47923;42.506;24.192;2023-05-08T10:28:58;95542.38;;;30.45;23.78
61961;BME280;47923;42.506;24.192;2023-05-08T10:31:24;95435.69;;;30.19;23.99
61961;BME280;47923;42.506;24.192;2023-05-08T10:33:54;95526.50;;;30.92;22.98
61961;BME280;47923;42.506;24.192;2023-05-08T10:36:24;95549.81;;;31.15;23.15
61961;BME280;47923;42.506;24.192;2023-05-08T10:38:50;95563.09;;;29.44;24.64
61961;BME280;47923;42.506;24.192;2023-05-08T10:41:18;95538.94;;;27.77;26.47
61961;BME280;47923;42.506;24.192;2023-05-08T10:43:43;95394.41;;;26.54;27.06
61961;BME280;47923;42.506;24.192;2023-05-08T10:48:55;95525.53;;;27.67;26.83
61961;BME280;47923;42.506;24.192;2023-05-08T10:51:52;95555.16;;;28.03;26.56
61961;BME280;47923;42.506;24.192;2023-05-08T10:57:30;95460.84;;;27.51;25.74
61961;BME280;47923;42.506;24.192;2023-05-08T10:59:56;95558.94;;;28.48;25.83
61961;BME280;47923;42.506;24.192;2023-05-08T11:02:30;95573.94;;;28.89;25.11
61961;BME280;47923;42.506;24.192;2023-05-08T11:05:16;95546.44;;;28.91;25.03
61961;BME280;47923;42.506;24.192;2023-05-08T11:07:53;95469.25;;;28.47;25.13
61961;BME280;47923;42.506;24.192;2023-05-08T11:10:19;95374.28;;;27.95;25.37
61961;BME280;47923;42.506;24.192;2023-05-08T11:12:47;95537.56;;;29.02;25.21
61961;BME280;47923;42.506;24.192;2023-05-08T11:15:14;95473.50;;;28.09;24.98
61961;BME280;47923;42.506;24.192;2023-05-08T11:17:40;95351.09;;;27.26;25.45
61961;BME280;47923;42.506;24.192;2023-05-08T11:20:10;95495.16;;;27.21;28.29
61961;BME280;47923;42.506;24.192;2023-05-08T11:22:36;95344.06;;;25.55;30.05
61961;BME280;47923;42.506;24.192;2023-05-08T11:25:09;95393.38;;;25.47;31.53
61961;BME280;47923;42.506;24.192;2023-05-08T11:46:02;95508.97;;;24.30;35.49
61961;BME280;47923;42.506;24.192;2023-05-08T11:48:29;95515.81;;;23.91;36.60
61961;BME280;47923;42.506;24.192;2023-05-08T11:50:55;95477.94;;;23.91;36.59
61961;BME280;47923;42.506;24.192;2023-05-08T11:53:21;95459.34;;;23.44;36.79
61961;BME280;47923;42.506;24.192;2023-05-08T11:55:50;95462.28;;;23.50;36.63
61961;BME280;47923;42.506;24.192;2023-05-08T11:58:16;95504.75;;;23.40;37.79
61961;BME280;47923;42.506;24.192;2023-05-08T12:00:43;95455.34;;;23.20;37.26
61961;BME280;47923;42.506;24.192;2023-05-08T12:03:12;95506.59;;;23.05;37.59
61961;BME280;47923;42.506;24.192;2023-05-08T12:05:39;95506.84;;;23.23;37.00
61961;BME280;47923;42.506;24.192;2023-05-08T12:08:05;95501.00;;;23.21;37.40
61961;BME280;47923;42.506;24.192;2023-05-08T12:10:31;95500.16;;;23.37;37.11
61961;BME280;47923;42.506;24.192;2023-05-08T12:12:56;95503.00;;;23.71;36.86
61961;BME280;47923;42.506;24.192;2023-05-08T12:15:22;95288.41;;;22.33;36.91
61961;BME280;47923;42.506;24.192;2023-05-08T12:17:47;95446.09;;;23.65;36.42
61961;BME280;47923;42.506;24.192;2023-05-08T12:20:15;95492.34;;;24.34;36.13
61961;BME280;47923;42.506;24.192;2023-05-08T12:22:48;95498.34;;;23.94;36.78
61961;BME280;47923;42.506;24.192;2023-05-08T12:25:15;95484.25;;;23.79;37.46
61961;BME280;47923;42.506;24.192;2023-05-08T12:27:42;95488.25;;;23.65;36.79
61961;BME280;47923;42.506;24.192;2023-05-08T12:30:10;95487.78;;;23.16;37.30
61961;BME280;47923;42.506;24.192;2023-05-08T12:32:37;95448.28;;;22.94;37.64
61961;BME280;47923;42.506;24.192;2023-05-08T12:35:07;95484.88;;;22.65;38.28
61961;BME280;47923;42.506;24.192;2023-05-08T12:37:34;95481.28;;;23.23;37.93
61961;BME280;47923;42.506;24.192;2023-05-08T12:39:59;95318.66;;;22.33;38.05
61961;BME280;47923;42.506;24.192;2023-05-08T12:42:44;95300.47;;;21.82;38.90
61961;BME280;47923;42.506;24.192;2023-05-08T12:45:20;95479.38;;;22.94;39.16
61961;BME280;47923;42.506;24.192;2023-05-08T12:47:51;95474.75;;;23.04;39.30
61961;BME280;47923;42.506;24.192;2023-05-08T12:50:19;95463.97;;;23.09;38.53
61961;BME280;47923;42.506;24.192;2023-05-08T12:52:50;95476.00;;;23.28;38.35
61961;BME280;47923;42.506;24.192;2023-05-08T12:55:23;95446.34;;;22.65;38.46
61961;BME280;47923;42.506;24.192;2023-05-08T12:57:49;95468.81;;;22.64;39.27
61961;BME280;47923;42.506;24.192;2023-05-08T13:00:16;95459.28;;;22.52;39.60
61961;BME280;47923;42.506;24.192;2023-05-08T13:02:52;95438.50;;;22.64;39.41
61961;BME280;47923;42.506;24.192;2023-05-08T13:05:20;95454.06;;;22.70;38.54
61961;BME280;47923;42.506;24.192;2023-05-08T13:07:46;95240.50;;;21.47;38.41
61961;BME280;47923;42.506;24.192;2023-05-08T13:10:12;95447.63;;;22.60;38.71
61961;BME280;47923;42.506;24.192;2023-05-08T13:12:37;95261.72;;;21.47;38.91
61961;BME280;47923;42.506;24.192;2023-05-08T13:15:03;95432.44;;;22.69;38.09
61961;BME280;47923;42.506;24.192;2023-05-08T13:17:29;95330.41;;;21.92;38.60
61961;BME280;47923;42.506;24.192;2023-05-08T13:19:54;95391.56;;;22.54;38.34
61961;BME280;47923;42.506;24.192;2023-05-08T13:22:20;95273.81;;;21.49;38.41
61961;BME280;47923;42.506;24.192;2023-05-08T13:24:47;95443.75;;;22.87;38.12
61961;BME280;47923;42.506;24.192;2023-05-08T13:27:13;95067.09;;;20.26;38.53
61961;BME280;47923;42.506;24.192;2023-05-08T13:29:38;95397.09;;;22.67;38.22
61961;BME280;47923;42.506;24.192;2023-05-08T13:32:04;95436.50;;;22.93;37.57
61961;BME280;47923;42.506;24.192;2023-05-08T13:34:30;95403.34;;;22.97;36.91
61961;BME280;47923;42.506;24.192;2023-05-08T13:36:56;95435.09;;;23.39;36.64
61961;BME280;47923;42.506;24.192;2023-05-08T13:39:21;95436.06;;;23.33;36.47
61961;BME280;47923;42.506;24.192;2023-05-08T13:41:47;95429.69;;;23.10;37.57
61961;BME280;47923;42.506;24.192;2023-05-08T13:44:12;95435.06;;;22.88;37.84
61961;BME280;47923;42.506;24.192;2023-05-08T13:46:37;95444.31;;;22.53;39.61
61961;BME280;47923;42.506;24.192;2023-05-08T13:49:03;95369.13;;;21.69;40.43
61961;BME280;47923;42.506;24.192;2023-05-08T13:51:28;95393.44;;;21.70;40.55
61961;BME280;47923;42.506;24.192;2023-05-08T13:53:54;95308.88;;;21.13;40.26